sensor_id;sensor_type;location;lat;lon;timestamp;P1;durP1;ratioP1;P2;durP2;ratioP2
23304;SDS011;11821;51.456;8.844;2023-06-22T00:00:49;14.52;;;12.98;;
23304;SDS011;11821;51.456;8.844;2023-06-22T00:03:20;15.48;;;12.68;;
23304;SDS011;11821;51.456;8.844;2023-06-22T00:05:47;18.15;;;12.70;;
23304;SDS011;11821;51.456;8.844;2023-06-22T00:08:17;14.32;;;12.93;;
23304;SDS011;11821;51.456;8.844;2023-06-22T00:10:44;14.30;;;12.88;;
23304;SDS011;11821;51.456;8.844;2023-06-22T00:13:11;15.65;;;13.50;;
23304;SDS011;11821;51.456;8.844;2023-06-22T00:15:38;14.07;;;12.98;;
23304;SDS011;11821;51.456;8.844;2023-06-22T00:18:09;14.30;;;13.10;;
23304;SDS011;11821;51.456;8.844;2023-06-22T00:20:36;16.73;;;12.35;;
23304;SDS011;11821;51.456;8.844;2023-06-22T00:23:03;13.60;;;12.35;;
23304;SDS011;11821;51.456;8.844;2023-06-22T00:25:42;15.13;;;11.93;;
23304;SDS011;11821;51.456;8.844;2023-06-22T00:28:09;17.20;;;13.75;;
23304;SDS011;11821;51.456;8.844;2023-06-22T00:30:35;14.23;;;12.50;;
23304;SDS011;11821;51.456;8.844;2023-06-22T00:33:02;16.63;;;13.48;;
23304;SDS011;11821;51.456;8.844;2023-06-22T00:35:29;15.80;;;13.23;;
23304;SDS011;11821;51.456;8.844;2023-06-22T00:37:59;15.77;;;13.93;;
23304;SDS011;11821;51.456;8.844;2023-06-22T00:40:27;14.02;;;12.93;;
23304;SDS011;11821;51.456;8.844;2023-06-22T00:42:54;14.77;;;13.75;;
23304;SDS011;11821;51.456;8.844;2023-06-22T00:45:21;13.98;;;12.35;;
23304;SDS011;11821;51.456;8.844;2023-06-22T00:47:51;14.55;;;13.20;;
23304;SDS011;11821;51.456;8.844;2023-06-22T00:50:19;15.15;;;12.90;;
23304;SDS011;11821;51.456;8.844;2023-06-22T00:52:50;17.83;;;14.07;;
23304;SDS011;11821;51.456;8.844;2023-06-22T00:55:18;14.68;;;13.32;;
23304;SDS011;11821;51.456;8.844;2023-06-22T00:57:45;13.93;;;12.52;;
23304;SDS011;11821;51.456;8.844;2023-06-22T01:00:14;16.10;;;13.25;;
23304;SDS011;11821;51.456;8.844;2023-06-22T01:02:45;13.85;;;12.43;;
23304;SDS011;11821;51.456;8.844;2023-06-22T01:05:15;14.55;;;13.23;;
23304;SDS011;11821;51.456;8.844;2023-06-22T01:07:49;14.30;;;13.10;;
23304;SDS011;11821;51.456;8.844;2023-06-22T01:12:48;14.35;;;12.98;;
23304;SDS011;11821;51.456;8.844;2023-06-22T01:15:33;15.38;;;13.25;;
23304;SDS011;11821;51.456;8.844;2023-06-22T01:18:04;16.08;;;14.20;;
23304;SDS011;11821;51.456;8.844;2023-06-22T01:20:32;18.05;;;13.35;;
23304;SDS011;11821;51.456;8.844;2023-06-22T01:25:41;17.85;;;14.07;;
23304;SDS011;11821;51.456;8.844;2023-06-22T01:30:45;16.08;;;14.15;;
23304;SDS011;11821;51.456;8.844;2023-06-22T01:33:12;20.73;;;13.48;;
23304;SDS011;11821;51.456;8.844;2023-06-22T01:35:39;16.08;;;14.45;;
23304;SDS011;11821;51.456;8.844;2023-06-22T01:38:06;15.32;;;13.85;;
23304;SDS011;11821;51.456;8.844;2023-06-22T01:40:33;15.07;;;13.73;;
23304;SDS011;11821;51.456;8.844;2023-06-22T01:43:01;18.27;;;13.88;;
23304;SDS011;11821;51.456;8.844;2023-06-22T01:45:28;19.48;;;13.32;;
23304;SDS011;11821;51.456;8.844;2023-06-22T01:47:56;14.68;;;13.13;;
23304;SDS011;11821;51.456;8.844;2023-06-22T01:50:22;14.63;;;11.98;;
23304;SDS011;11821;51.456;8.844;2023-06-22T01:52:49;14.50;;;11.27;;
23304;SDS011;11821;51.456;8.844;2023-06-22T01:55:16;17.67;;;13.35;;
23304;SDS011;11821;51.456;8.844;2023-06-22T01:57:42;15.05;;;13.85;;
23304;SDS011;11821;51.456;8.844;2023-06-22T02:00:13;14.50;;;13.05;;
23304;SDS011;11821;51.456;8.844;2023-06-22T02:02:52;20.67;;;14.35;;
23304;SDS011;11821;51.456;8.844;2023-06-22T02:05:20;16.13;;;14.70;;
23304;SDS011;11821;51.456;8.844;2023-06-22T02:07:57;15.35;;;13.85;;
23304;SDS011;11821;51.456;8.844;2023-06-22T02:10:26;15.60;;;13.30;;
23304;SDS011;11821;51.456;8.844;2023-06-22T02:12:57;15.07;;;13.40;;
23304;SDS011;11821;51.456;8.844;2023-06-22T02:15:24;14.48;;;12.75;;
23304;SDS011;11821;51.456;8.844;2023-06-22T02:17:53;18.20;;;12.82;;
23304;SDS011;11821;51.456;8.844;2023-06-22T02:20:21;15.57;;;13.38;;
23304;SDS011;11821;51.456;8.844;2023-06-22T02:22:47;19.67;;;14.40;;
23304;SDS011;11821;51.456;8.844;2023-06-22T02:25:14;13.05;;;11.82;;
23304;SDS011;11821;51.456;8.844;2023-06-22T02:27:41;13.68;;;12.52;;
23304;SDS011;11821;51.456;8.844;2023-06-22T02:30:08;14.52;;;13.23;;
23304;SDS011;11821;51.456;8.844;2023-06-22T02:32:35;14.90;;;13.57;;
23304;SDS011;11821;51.456;8.844;2023-06-22T02:35:02;15.23;;;13.70;;
23304;SDS011;11821;51.456;8.844;2023-06-22T02:37:30;14.68;;;13.38;;
23304;SDS011;11821;51.456;8.844;2023-06-22T02:39:57;15.45;;;13.90;;
23304;SDS011;11821;51.456;8.844;2023-06-22T02:42:24;14.73;;;13.13;;
23304;SDS011;11821;51.456;8.844;2023-06-22T02:44:50;14.43;;;13.10;;
23304;SDS011;11821;51.456;8.844;2023-06-22T02:47:19;13.73;;;12.43;;
23304;SDS011;11821;51.456;8.844;2023-06-22T02:49:46;15.40;;;13.50;;
23304;SDS011;11821;51.456;8.844;2023-06-22T02:52:13;15.02;;;13.73;;
23304;SDS011;11821;51.456;8.844;2023-06-22T02:54:40;14.25;;;12.85;;
23304;SDS011;11821;51.456;8.844;2023-06-22T02:57:07;13.77;;;12.63;;
23304;SDS011;11821;51.456;8.844;2023-06-22T02:59:40;17.08;;;13.40;;
23304;SDS011;11821;51.456;8.844;2023-06-22T03:02:09;13.65;;;12.65;;
23304;SDS011;11821;51.456;8.844;2023-06-22T03:04:37;18.23;;;14.48;;
23304;SDS011;11821;51.456;8.844;2023-06-22T03:07:03;15.43;;;13.90;;
23304;SDS011;11821;51.456;8.844;2023-06-22T03:09:31;16.02;;;14.65;;
23304;SDS011;11821;51.456;8.844;2023-06-22T03:11:58;16.05;;;14.50;;
23304;SDS011;11821;51.456;8.844;2023-06-22T03:14:33;18.00;;;14.10;;
23304;SDS011;11821;51.456;8.844;2023-06-22T03:16:59;17.48;;;14.80;;
23304;SDS011;11821;51.456;8.844;2023-06-22T03:19:29;15.32;;;13.80;;
23304;SDS011;11821;51.456;8.844;2023-06-22T03:21:57;17.67;;;14.90;;
23304;SDS011;11821;51.456;8.844;2023-06-22T03:24:25;14.88;;;13.50;;
23304;SDS011;11821;51.456;8.844;2023-06-22T03:26:55;15.05;;;13.52;;
23304;SDS011;11821;51.456;8.844;2023-06-22T03:29:22;16.02;;;14.52;;
23304;SDS011;11821;51.456;8.844;2023-06-22T03:31:49;19.52;;;14.13;;
23304;SDS011;11821;51.456;8.844;2023-06-22T03:34:16;15.10;;;13.80;;
23304;SDS011;11821;51.456;8.844;2023-06-22T03:36:43;20.92;;;14.90;;
23304;SDS011;11821;51.456;8.844;2023-06-22T03:39:11;14.77;;;13.05;;
23304;SDS011;11821;51.456;8.844;2023-06-22T03:41:38;20.20;;;13.10;;
23304;SDS011;11821;51.456;8.844;2023-06-22T03:44:04;17.60;;;13.98;;
23304;SDS011;11821;51.456;8.844;2023-06-22T03:46:31;18.38;;;14.20;;
23304;SDS011;11821;51.456;8.844;2023-06-22T03:48:58;23.50;;;15.18;;
23304;SDS011;11821;51.456;8.844;2023-06-22T03:51:24;15.70;;;14.20;;
23304;SDS011;11821;51.456;8.844;2023-06-22T03:53:51;16.63;;;14.43;;
23304;SDS011;11821;51.456;8.844;2023-06-22T03:56:17;11.23;;;10.18;;
23304;SDS011;11821;51.456;8.844;2023-06-22T03:58:46;12.40;;;11.30;;
23304;SDS011;11821;51.456;8.844;2023-06-22T04:01:12;17.95;;;13.82;;
23304;SDS011;11821;51.456;8.844;2023-06-22T04:03:39;15.63;;;14.10;;
23304;SDS011;11821;51.456;8.844;2023-06-22T04:06:05;17.60;;;13.88;;
23304;SDS011;11821;51.456;8.844;2023-06-22T04:08:32;16.70;;;12.52;;
23304;SDS011;11821;51.456;8.844;2023-06-22T04:10:59;15.43;;;12.43;;
23304;SDS011;11821;51.456;8.844;2023-06-22T04:13:25;15.50;;;12.82;;
23304;SDS011;11821;51.456;8.844;2023-06-22T04:15:52;15.02;;;12.95;;
23304;SDS011;11821;51.456;8.844;2023-06-22T04:18:18;14.43;;;13.23;;
23304;SDS011;11821;51.456;8.844;2023-06-22T04:20:45;15.57;;;14.18;;
23304;SDS011;11821;51.456;8.844;2023-06-22T04:23:12;16.85;;;14.13;;
23304;SDS011;11821;51.456;8.844;2023-06-22T04:25:39;15.63;;;14.05;;
23304;SDS011;11821;51.456;8.844;2023-06-22T04:28:05;22.73;;;15.18;;
23304;SDS011;11821;51.456;8.844;2023-06-22T04:30:38;17.38;;;15.27;;
23304;SDS011;11821;51.456;8.844;2023-06-22T04:33:12;15.38;;;13.88;;
23304;SDS011;11821;51.456;8.844;2023-06-22T04:35:39;21.98;;;15.43;;
23304;SDS011;11821;51.456;8.844;2023-06-22T04:38:08;18.75;;;14.77;;
23304;SDS011;11821;51.456;8.844;2023-06-22T04:40:36;20.92;;;15.77;;
23304;SDS011;11821;51.456;8.844;2023-06-22T04:43:02;17.40;;;14.30;;
23304;SDS011;11821;51.456;8.844;2023-06-22T04:45:29;18.05;;;15.38;;
23304;SDS011;11821;51.456;8.844;2023-06-22T04:47:55;17.70;;;15.88;;
23304;SDS011;11821;51.456;8.844;2023-06-22T04:50:22;19.33;;;17.15;;
23304;SDS011;11821;51.456;8.844;2023-06-22T04:52:49;19.58;;;17.17;;
23304;SDS011;11821;51.456;8.844;2023-06-22T04:55:16;22.33;;;17.98;;
23304;SDS011;11821;51.456;8.844;2023-06-22T04:57:44;18.45;;;17.05;;
23304;SDS011;11821;51.456;8.844;2023-06-22T05:00:18;18.45;;;16.70;;
23304;SDS011;11821;51.456;8.844;2023-06-22T05:02:45;18.17;;;16.60;;
23304;SDS011;11821;51.456;8.844;2023-06-22T05:05:12;19.92;;;17.95;;
23304;SDS011;11821;51.456;8.844;2023-06-22T05:07:42;21.42;;;18.98;;
23304;SDS011;11821;51.456;8.844;2023-06-22T05:10:10;19.77;;;17.77;;
23304;SDS011;11821;51.456;8.844;2023-06-22T05:12:38;19.77;;;17.08;;
23304;SDS011;11821;51.456;8.844;2023-06-22T05:15:05;19.67;;;17.77;;
23304;SDS011;11821;51.456;8.844;2023-06-22T05:17:32;19.58;;;17.80;;
23304;SDS011;11821;51.456;8.844;2023-06-22T05:19:59;19.52;;;17.50;;
23304;SDS011;11821;51.456;8.844;2023-06-22T05:22:25;21.35;;;19.13;;
23304;SDS011;11821;51.456;8.844;2023-06-22T05:24:52;22.55;;;20.30;;
23304;SDS011;11821;51.456;8.844;2023-06-22T05:27:18;22.17;;;19.75;;
23304;SDS011;11821;51.456;8.844;2023-06-22T05:29:45;22.83;;;20.30;;
23304;SDS011;11821;51.456;8.844;2023-06-22T05:32:12;22.23;;;20.00;;
23304;SDS011;11821;51.456;8.844;2023-06-22T05:34:38;20.52;;;18.48;;
23304;SDS011;11821;51.456;8.844;2023-06-22T05:37:05;21.80;;;19.80;;
23304;SDS011;11821;51.456;8.844;2023-06-22T05:39:32;20.90;;;18.77;;
23304;SDS011;11821;51.456;8.844;2023-06-22T05:41:58;23.27;;;19.90;;
23304;SDS011;11821;51.456;8.844;2023-06-22T05:44:25;22.63;;;19.38;;
23304;SDS011;11821;51.456;8.844;2023-06-22T05:46:51;24.27;;;20.98;;
23304;SDS011;11821;51.456;8.844;2023-06-22T05:49:18;21.25;;;19.10;;
23304;SDS011;11821;51.456;8.844;2023-06-22T05:51:47;21.25;;;19.20;;
23304;SDS011;11821;51.456;8.844;2023-06-22T05:54:14;23.38;;;21.08;;
23304;SDS011;11821;51.456;8.844;2023-06-22T05:56:43;22.73;;;20.50;;
23304;SDS011;11821;51.456;8.844;2023-06-22T05:59:10;25.52;;;22.83;;
23304;SDS011;11821;51.456;8.844;2023-06-22T06:01:36;27.38;;;24.60;;
23304;SDS011;11821;51.456;8.844;2023-06-22T06:04:03;28.98;;;23.77;;
23304;SDS011;11821;51.456;8.844;2023-06-22T06:06:30;27.08;;;24.17;;
23304;SDS011;11821;51.456;8.844;2023-06-22T06:08:56;23.42;;;21.23;;
23304;SDS011;11821;51.456;8.844;2023-06-22T06:11:24;28.15;;;20.88;;
23304;SDS011;11821;51.456;8.844;2023-06-22T06:13:51;24.77;;;20.88;;
23304;SDS011;11821;51.456;8.844;2023-06-22T06:16:18;22.92;;;20.73;;
23304;SDS011;11821;51.456;8.844;2023-06-22T06:18:44;22.88;;;20.52;;
23304;SDS011;11821;51.456;8.844;2023-06-22T06:21:11;25.58;;;21.77;;
23304;SDS011;11821;51.456;8.844;2023-06-22T06:23:37;26.88;;;21.60;;
23304;SDS011;11821;51.456;8.844;2023-06-22T06:26:04;26.25;;;23.38;;
23304;SDS011;11821;51.456;8.844;2023-06-22T06:28:32;31.65;;;23.52;;
23304;SDS011;11821;51.456;8.844;2023-06-22T06:30:59;24.70;;;22.10;;
23304;SDS011;11821;51.456;8.844;2023-06-22T06:33:26;27.23;;;24.13;;
23304;SDS011;11821;51.456;8.844;2023-06-22T06:35:52;25.85;;;23.38;;
23304;SDS011;11821;51.456;8.844;2023-06-22T06:38:21;31.38;;;25.10;;
23304;SDS011;11821;51.456;8.844;2023-06-22T06:40:48;32.88;;;23.42;;
23304;SDS011;11821;51.456;8.844;2023-06-22T06:43:14;26.40;;;23.58;;
23304;SDS011;11821;51.456;8.844;2023-06-22T06:45:41;22.60;;;19.45;;
23304;SDS011;11821;51.456;8.844;2023-06-22T06:48:07;26.58;;;23.75;;
23304;SDS011;11821;51.456;8.844;2023-06-22T06:50:34;23.30;;;20.98;;
23304;SDS011;11821;51.456;8.844;2023-06-22T06:53:01;26.95;;;24.55;;
23304;SDS011;11821;51.456;8.844;2023-06-22T06:55:27;28.30;;;23.88;;
23304;SDS011;11821;51.456;8.844;2023-06-22T06:57:58;22.88;;;20.60;;
23304;SDS011;11821;51.456;8.844;2023-06-22T07:00:25;22.38;;;20.38;;
23304;SDS011;11821;51.456;8.844;2023-06-22T07:02:52;12.30;;;11.30;;
23304;SDS011;11821;51.456;8.844;2023-06-22T07:05:19;17.50;;;16.00;;
23304;SDS011;11821;51.456;8.844;2023-06-22T07:07:45;15.30;;;14.00;;
23304;SDS011;11821;51.456;8.844;2023-06-22T07:10:12;14.25;;;12.95;;
23304;SDS011;11821;51.456;8.844;2023-06-22T07:12:38;14.25;;;12.50;;
23304;SDS011;11821;51.456;8.844;2023-06-22T07:15:06;14.05;;;12.85;;
23304;SDS011;11821;51.456;8.844;2023-06-22T07:17:37;13.43;;;12.15;;
23304;SDS011;11821;51.456;8.844;2023-06-22T07:20:04;12.30;;;11.30;;
23304;SDS011;11821;51.456;8.844;2023-06-22T07:22:35;12.35;;;11.35;;
23304;SDS011;11821;51.456;8.844;2023-06-22T07:25:02;11.80;;;10.70;;
23304;SDS011;11821;51.456;8.844;2023-06-22T07:27:38;12.75;;;11.73;;
23304;SDS011;11821;51.456;8.844;2023-06-22T07:30:08;10.50;;;9.60;;
23304;SDS011;11821;51.456;8.844;2023-06-22T07:32:35;10.85;;;9.88;;
23304;SDS011;11821;51.456;8.844;2023-06-22T07:35:02;10.15;;;9.45;;
23304;SDS011;11821;51.456;8.844;2023-06-22T07:37:29;9.73;;;8.93;;
23304;SDS011;11821;51.456;8.844;2023-06-22T07:39:56;9.25;;;8.55;;
23304;SDS011;11821;51.456;8.844;2023-06-22T07:42:26;9.68;;;8.63;;
23304;SDS011;11821;51.456;8.844;2023-06-22T07:44:53;10.35;;;9.55;;
23304;SDS011;11821;51.456;8.844;2023-06-22T07:47:20;10.18;;;9.38;;
23304;SDS011;11821;51.456;8.844;2023-06-22T07:49:50;10.75;;;9.85;;
23304;SDS011;11821;51.456;8.844;2023-06-22T07:52:17;10.27;;;9.38;;
23304;SDS011;11821;51.456;8.844;2023-06-22T07:54:44;9.45;;;8.75;;
23304;SDS011;11821;51.456;8.844;2023-06-22T07:57:10;9.63;;;8.73;;
23304;SDS011;11821;51.456;8.844;2023-06-22T07:59:37;10.32;;;9.43;;
23304;SDS011;11821;51.456;8.844;2023-06-22T08:02:04;10.57;;;9.60;;
23304;SDS011;11821;51.456;8.844;2023-06-22T08:04:31;10.00;;;9.10;;
23304;SDS011;11821;51.456;8.844;2023-06-22T08:07:00;9.50;;;8.77;;
23304;SDS011;11821;51.456;8.844;2023-06-22T08:09:30;10.18;;;8.10;;
23304;SDS011;11821;51.456;8.844;2023-06-22T08:11:58;9.43;;;8.68;;
23304;SDS011;11821;51.456;8.844;2023-06-22T08:14:25;9.23;;;8.52;;
23304;SDS011;11821;51.456;8.844;2023-06-22T08:16:52;7.88;;;7.10;;
23304;SDS011;11821;51.456;8.844;2023-06-22T08:19:18;7.97;;;7.28;;
23304;SDS011;11821;51.456;8.844;2023-06-22T08:21:45;7.68;;;7.07;;
23304;SDS011;11821;51.456;8.844;2023-06-22T08:24:11;10.02;;;7.10;;
23304;SDS011;11821;51.456;8.844;2023-06-22T08:26:38;6.95;;;6.35;;
23304;SDS011;11821;51.456;8.844;2023-06-22T08:29:05;7.18;;;6.65;;
23304;SDS011;11821;51.456;8.844;2023-06-22T08:31:31;7.15;;;6.45;;
23304;SDS011;11821;51.456;8.844;2023-06-22T08:34:00;7.90;;;7.20;;
23304;SDS011;11821;51.456;8.844;2023-06-22T08:36:26;7.40;;;6.80;;
23304;SDS011;11821;51.456;8.844;2023-06-22T08:39:00;7.88;;;7.20;;
23304;SDS011;11821;51.456;8.844;2023-06-22T08:41:28;8.10;;;7.38;;
23304;SDS011;11821;51.456;8.844;2023-06-22T08:43:55;7.85;;;7.22;;
23304;SDS011;11821;51.456;8.844;2023-06-22T08:46:21;8.45;;;7.65;;
23304;SDS011;11821;51.456;8.844;2023-06-22T08:48:56;8.52;;;7.80;;
23304;SDS011;11821;51.456;8.844;2023-06-22T08:51:25;8.18;;;7.47;;
23304;SDS011;11821;51.456;8.844;2023-06-22T08:53:52;8.50;;;7.90;;
23304;SDS011;11821;51.456;8.844;2023-06-22T08:56:18;8.90;;;8.20;;
23304;SDS011;11821;51.456;8.844;2023-06-22T08:58:45;8.38;;;7.63;;
23304;SDS011;11821;51.456;8.844;2023-06-22T09:01:11;9.10;;;8.30;;
23304;SDS011;11821;51.456;8.844;2023-06-22T09:03:37;9.25;;;8.55;;
23304;SDS011;11821;51.456;8.844;2023-06-22T09:06:04;11.20;;;10.30;;
23304;SDS011;11821;51.456;8.844;2023-06-22T09:08:30;8.80;;;7.97;;
23304;SDS011;11821;51.456;8.844;2023-06-22T09:10:56;9.43;;;8.63;;
23304;SDS011;11821;51.456;8.844;2023-06-22T09:13:23;10.32;;;9.18;;
23304;SDS011;11821;51.456;8.844;2023-06-22T09:15:49;9.48;;;8.70;;
23304;SDS011;11821;51.456;8.844;2023-06-22T09:18:16;9.03;;;8.30;;
23304;SDS011;11821;51.456;8.844;2023-06-22T09:20:42;9.82;;;8.82;;
23304;SDS011;11821;51.456;8.844;2023-06-22T09:23:09;8.38;;;7.57;;
23304;SDS011;11821;51.456;8.844;2023-06-22T09:25:35;8.25;;;7.55;;
23304;SDS011;11821;51.456;8.844;2023-06-22T09:28:01;8.77;;;8.13;;
23304;SDS011;11821;51.456;8.844;2023-06-22T09:30:28;7.93;;;7.22;;
23304;SDS011;11821;51.456;8.844;2023-06-22T09:32:54;8.38;;;7.68;;
23304;SDS011;11821;51.456;8.844;2023-06-22T09:35:20;9.75;;;8.85;;
23304;SDS011;11821;51.456;8.844;2023-06-22T09:37:47;11.40;;;9.27;;
23304;SDS011;11821;51.456;8.844;2023-06-22T09:40:13;10.57;;;9.68;;
23304;SDS011;11821;51.456;8.844;2023-06-22T09:42:42;9.95;;;9.15;;
23304;SDS011;11821;51.456;8.844;2023-06-22T09:45:08;10.80;;;9.90;;
23304;SDS011;11821;51.456;8.844;2023-06-22T09:47:35;10.00;;;9.20;;
23304;SDS011;11821;51.456;8.844;2023-06-22T09:50:02;11.15;;;10.18;;
23304;SDS011;11821;51.456;8.844;2023-06-22T09:52:28;11.30;;;10.23;;
23304;SDS011;11821;51.456;8.844;2023-06-22T09:54:55;10.55;;;9.65;;
23304;SDS011;11821;51.456;8.844;2023-06-22T09:57:21;11.10;;;10.25;;
23304;SDS011;11821;51.456;8.844;2023-06-22T09:59:47;10.25;;;9.40;;
23304;SDS011;11821;51.456;8.844;2023-06-22T10:02:14;11.57;;;10.68;;
23304;SDS011;11821;51.456;8.844;2023-06-22T10:04:40;10.02;;;9.30;;
23304;SDS011;11821;51.456;8.844;2023-06-22T10:07:06;10.20;;;9.27;;
23304;SDS011;11821;51.456;8.844;2023-06-22T10:09:33;10.75;;;9.95;;
23304;SDS011;11821;51.456;8.844;2023-06-22T10:11:59;9.75;;;8.95;;
23304;SDS011;11821;51.456;8.844;2023-06-22T10:14:26;10.20;;;9.18;;
23304;SDS011;11821;51.456;8.844;2023-06-22T10:16:54;8.70;;;8.00;;
23304;SDS011;11821;51.456;8.844;2023-06-22T10:19:21;8.65;;;7.90;;
23304;SDS011;11821;51.456;8.844;2023-06-22T10:21:47;9.07;;;8.05;;
23304;SDS011;11821;51.456;8.844;2023-06-22T10:24:14;9.90;;;8.90;;
23304;SDS011;11821;51.456;8.844;2023-06-22T10:26:40;8.45;;;7.70;;
23304;SDS011;11821;51.456;8.844;2023-06-22T10:29:06;8.82;;;8.13;;
23304;SDS011;11821;51.456;8.844;2023-06-22T10:31:33;10.65;;;9.15;;
23304;SDS011;11821;51.456;8.844;2023-06-22T10:33:59;10.13;;;9.40;;
23304;SDS011;11821;51.456;8.844;2023-06-22T10:36:25;8.90;;;8.20;;
23304;SDS011;11821;51.456;8.844;2023-06-22T10:38:52;8.45;;;7.70;;
23304;SDS011;11821;51.456;8.844;2023-06-22T10:41:19;8.73;;;7.82;;
23304;SDS011;11821;51.456;8.844;2023-06-22T10:43:45;8.43;;;7.80;;
23304;SDS011;11821;51.456;8.844;2023-06-22T10:46:12;8.35;;;7.75;;
23304;SDS011;11821;51.456;8.844;2023-06-22T10:48:38;8.57;;;7.70;;
23304;SDS011;11821;51.456;8.844;2023-06-22T10:51:05;9.00;;;8.27;;
23304;SDS011;11821;51.456;8.844;2023-06-22T10:53:31;8.15;;;7.40;;
23304;SDS011;11821;51.456;8.844;2023-06-22T10:55:58;8.43;;;7.68;;
23304;SDS011;11821;51.456;8.844;2023-06-22T10:58:24;8.45;;;7.85;;
23304;SDS011;11821;51.456;8.844;2023-06-22T11:00:50;8.23;;;7.53;;
23304;SDS011;11821;51.456;8.844;2023-06-22T11:03:17;8.25;;;7.65;;
23304;SDS011;11821;51.456;8.844;2023-06-22T11:05:43;8.07;;;7.22;;
23304;SDS011;11821;51.456;8.844;2023-06-22T11:08:09;8.80;;;8.10;;
23304;SDS011;11821;51.456;8.844;2023-06-22T11:10:36;7.93;;;7.32;;
23304;SDS011;11821;51.456;8.844;2023-06-22T11:13:02;8.65;;;8.00;;
23304;SDS011;11821;51.456;8.844;2023-06-22T11:15:29;8.68;;;7.97;;
23304;SDS011;11821;51.456;8.844;2023-06-22T11:17:56;8.68;;;7.88;;
23304;SDS011;11821;51.456;8.844;2023-06-22T11:20:22;9.10;;;8.40;;
23304;SDS011;11821;51.456;8.844;2023-06-22T11:22:48;11.13;;;7.82;;
23304;SDS011;11821;51.456;8.844;2023-06-22T11:25:15;11.50;;;7.90;;
23304;SDS011;11821;51.456;8.844;2023-06-22T11:27:41;8.95;;;8.20;;
23304;SDS011;11821;51.456;8.844;2023-06-22T11:30:08;8.13;;;7.32;;
23304;SDS011;11821;51.456;8.844;2023-06-22T11:32:34;8.00;;;7.45;;
23304;SDS011;11821;51.456;8.844;2023-06-22T11:35:01;8.20;;;7.40;;
23304;SDS011;11821;51.456;8.844;2023-06-22T11:37:27;7.90;;;7.20;;
23304;SDS011;11821;51.456;8.844;2023-06-22T11:39:54;7.85;;;7.15;;
23304;SDS011;11821;51.456;8.844;2023-06-22T11:42:20;8.00;;;7.30;;
23304;SDS011;11821;51.456;8.844;2023-06-22T11:44:49;8.38;;;7.78;;
23304;SDS011;11821;51.456;8.844;2023-06-22T11:47:15;12.57;;;7.25;;
23304;SDS011;11821;51.456;8.844;2023-06-22T11:49:41;8.48;;;7.72;;
23304;SDS011;11821;51.456;8.844;2023-06-22T11:52:08;8.98;;;8.10;;
23304;SDS011;11821;51.456;8.844;2023-06-22T11:54:34;7.97;;;7.38;;
23304;SDS011;11821;51.456;8.844;2023-06-22T11:57:01;8.45;;;7.20;;
23304;SDS011;11821;51.456;8.844;2023-06-22T11:59:27;8.25;;;7.18;;
23304;SDS011;11821;51.456;8.844;2023-06-22T12:01:53;8.68;;;7.85;;
23304;SDS011;11821;51.456;8.844;2023-06-22T12:04:20;8.30;;;7.60;;
23304;SDS011;11821;51.456;8.844;2023-06-22T12:06:46;7.47;;;6.88;;
23304;SDS011;11821;51.456;8.844;2023-06-22T12:09:13;8.30;;;7.60;;
23304;SDS011;11821;51.456;8.844;2023-06-22T12:11:40;8.35;;;7.55;;
23304;SDS011;11821;51.456;8.844;2023-06-22T12:14:06;8.02;;;7.32;;
23304;SDS011;11821;51.456;8.844;2023-06-22T12:16:33;10.25;;;9.38;;
23304;SDS011;11821;51.456;8.844;2023-06-22T12:18:59;9.57;;;8.57;;
23304;SDS011;11821;51.456;8.844;2023-06-22T12:21:26;10.40;;;9.05;;
23304;SDS011;11821;51.456;8.844;2023-06-22T12:23:53;9.63;;;8.73;;
23304;SDS011;11821;51.456;8.844;2023-06-22T12:26:20;9.15;;;8.25;;
23304;SDS011;11821;51.456;8.844;2023-06-22T12:28:47;9.63;;;8.82;;
23304;SDS011;11821;51.456;8.844;2023-06-22T12:31:14;10.63;;;9.07;;
23304;SDS011;11821;51.456;8.844;2023-06-22T12:33:40;11.52;;;10.32;;
23304;SDS011;11821;51.456;8.844;2023-06-22T12:36:07;12.82;;;9.88;;
23304;SDS011;11821;51.456;8.844;2023-06-22T12:38:33;10.85;;;9.85;;
23304;SDS011;11821;51.456;8.844;2023-06-22T12:40:59;12.63;;;11.35;;
23304;SDS011;11821;51.456;8.844;2023-06-22T12:43:26;15.20;;;10.60;;
23304;SDS011;11821;51.456;8.844;2023-06-22T12:45:52;11.88;;;10.88;;
23304;SDS011;11821;51.456;8.844;2023-06-22T12:48:19;13.43;;;11.98;;
23304;SDS011;11821;51.456;8.844;2023-06-22T12:50:45;12.65;;;11.45;;
23304;SDS011;11821;51.456;8.844;2023-06-22T12:53:13;12.55;;;11.23;;
23304;SDS011;11821;51.456;8.844;2023-06-22T12:55:39;11.77;;;10.85;;
23304;SDS011;11821;51.456;8.844;2023-06-22T12:58:06;13.27;;;11.13;;
23304;SDS011;11821;51.456;8.844;2023-06-22T13:00:32;10.98;;;10.07;;
23304;SDS011;11821;51.456;8.844;2023-06-22T13:02:58;11.57;;;10.68;;
23304;SDS011;11821;51.456;8.844;2023-06-22T13:05:24;11.32;;;9.90;;
23304;SDS011;11821;51.456;8.844;2023-06-22T13:07:51;11.43;;;10.52;;
23304;SDS011;11821;51.456;8.844;2023-06-22T13:10:17;12.15;;;10.82;;
23304;SDS011;11821;51.456;8.844;2023-06-22T13:12:43;11.57;;;10.40;;
23304;SDS011;11821;51.456;8.844;2023-06-22T13:15:10;12.48;;;11.27;;
23304;SDS011;11821;51.456;8.844;2023-06-22T13:17:36;10.18;;;9.40;;
23304;SDS011;11821;51.456;8.844;2023-06-22T13:20:02;11.30;;;10.35;;
23304;SDS011;11821;51.456;8.844;2023-06-22T13:22:31;10.18;;;9.38;;
23304;SDS011;11821;51.456;8.844;2023-06-22T13:25:00;9.57;;;8.68;;
23304;SDS011;11821;51.456;8.844;2023-06-22T13:27:26;10.05;;;9.27;;
23304;SDS011;11821;51.456;8.844;2023-06-22T13:29:53;10.68;;;9.57;;
23304;SDS011;11821;51.456;8.844;2023-06-22T13:32:19;11.45;;;9.18;;
23304;SDS011;11821;51.456;8.844;2023-06-22T13:34:45;11.55;;;10.43;;
23304;SDS011;11821;51.456;8.844;2023-06-22T13:37:12;11.23;;;10.18;;
23304;SDS011;11821;51.456;8.844;2023-06-22T13:39:38;10.38;;;9.35;;
23304;SDS011;11821;51.456;8.844;2023-06-22T13:42:04;15.13;;;12.05;;
23304;SDS011;11821;51.456;8.844;2023-06-22T13:44:31;11.32;;;10.23;;
23304;SDS011;11821;51.456;8.844;2023-06-22T13:46:57;12.77;;;11.48;;
23304;SDS011;11821;51.456;8.844;2023-06-22T13:49:24;12.85;;;11.75;;
23304;SDS011;11821;51.456;8.844;2023-06-22T13:54:45;12.40;;;11.20;;
23304;SDS011;11821;51.456;8.844;2023-06-22T13:57:12;10.48;;;9.60;;
23304;SDS011;11821;51.456;8.844;2023-06-22T13:59:38;13.10;;;11.73;;
23304;SDS011;11821;51.456;8.844;2023-06-22T14:02:04;13.65;;;12.32;;
23304;SDS011;11821;51.456;8.844;2023-06-22T14:04:31;15.10;;;13.85;;
23304;SDS011;11821;51.456;8.844;2023-06-22T14:06:57;15.55;;;14.02;;
23304;SDS011;11821;51.456;8.844;2023-06-22T14:09:24;15.30;;;13.93;;
23304;SDS011;11821;51.456;8.844;2023-06-22T14:11:51;13.75;;;12.63;;
23304;SDS011;11821;51.456;8.844;2023-06-22T14:14:17;14.13;;;12.82;;
23304;SDS011;11821;51.456;8.844;2023-06-22T14:16:43;13.95;;;12.55;;
23304;SDS011;11821;51.456;8.844;2023-06-22T14:19:11;15.02;;;13.82;;
23304;SDS011;11821;51.456;8.844;2023-06-22T14:21:37;16.98;;;14.90;;
23304;SDS011;11821;51.456;8.844;2023-06-22T14:24:04;15.43;;;14.02;;
23304;SDS011;11821;51.456;8.844;2023-06-22T14:26:30;16.65;;;14.93;;
23304;SDS011;11821;51.456;8.844;2023-06-22T14:28:56;16.45;;;14.85;;
23304;SDS011;11821;51.456;8.844;2023-06-22T14:31:23;16.70;;;15.05;;
23304;SDS011;11821;51.456;8.844;2023-06-22T14:33:49;18.23;;;16.63;;
23304;SDS011;11821;51.456;8.844;2023-06-22T14:36:16;17.88;;;15.50;;
23304;SDS011;11821;51.456;8.844;2023-06-22T14:38:45;19.38;;;16.83;;